Qashlu, Yemen
Current Conditions -  °F | °C
As of 11:00 AM on Thursday 23 Oct 2014 (Local Time) from OYSQ Reporting Station
Broken Clouds Broken Clouds  
Wind Chill: 31°   Ceiling: 20000
Heat Index: 35°   Visibility: 6mi
Dew Point: 23°   Wind: 18mph
Humidity: 62%   Direction: 40°NE
Pressure: 29.91"   Gusts: NA
Location:  12.61°N, 53.86°E
Report Text: OYSQ 230800Z 04016KT 9999 FEW018 BKN200 31/23 Q1013
Loading
Personal Weather Stations






























Interactive Weather Map
Tropical Storm Tracking
New forecast layout! Learn more

10-Day Weather Forecast

Advertisements
Track Severe Weather on mobile